Sylacauga, Alabama
Current Conditions -  °F | °C
As of 8:35 PM on Thursday 20 Nov 2014 (Local Time) from KSCD Reporting Station
Overcast Overcast  
Wind Chill: 44°   Ceiling: 8000
Heat Index: 44°   Visibility: 10mi
Dew Point: 44°   Wind: 0mph
Humidity: 99%   Direction: NA
Pressure: 30.25"   Gusts: NA
Location:  33.17°N, 86.25°W
Report Text: KSCD 210235Z AUTO 00000KT 10SM OVC080 07/06 A3025 RMK AO2 T00650064
Loading
Personal Weather Stations






























Interactive Weather Map New forecast layout! Learn more

10-Day Weather Forecast

Advertisements
Track Severe Weather on mobile